createdAt,value
2019-03-29T02:53:28.291Z,99.90
2019-03-29T02:58:33.125Z,99.90
2019-03-29T03:03:37.382Z,99.90
2019-03-29T03:08:41.639Z,99.90
2019-03-29T03:13:48.871Z,99.90
2019-03-29T03:18:54.568Z,99.90
2019-03-29T03:24:00.998Z,99.90
2019-03-29T03:29:09.716Z,99.90
2019-03-29T03:34:16.815Z,99.90
2019-03-29T03:39:32.177Z,99.90
2019-03-29T03:44:33.398Z,99.90
2019-03-29T03:49:39.421Z,99.90
2019-03-29T03:54:44.814Z,99.90
2019-03-29T03:59:51.175Z,99.90
2019-03-29T04:04:57.034Z,99.90
2019-03-29T04:10:02.528Z,99.90
2019-03-29T04:15:08.515Z,99.90
2019-03-29T04:20:15.071Z,99.90
2019-03-29T04:25:21.036Z,99.90
2019-03-29T04:30:26.704Z,99.90
2019-03-29T04:35:34.543Z,99.90
2019-03-29T04:40:40.937Z,99.90
2019-03-29T04:45:46.378Z,99.90
2019-03-29T04:50:51.819Z,99.90
2019-03-29T04:55:56.824Z,99.90
2019-03-29T05:01:01.851Z,99.90
2019-03-29T05:06:06.310Z,99.90
2019-03-29T05:11:10.530Z,99.90
2019-03-29T05:16:17.802Z,99.90
2019-03-29T05:21:22.333Z,99.90
2019-03-29T05:26:27.189Z,99.90
2019-03-29T05:31:31.558Z,99.90
2019-03-29T05:36:36.449Z,99.90
2019-03-29T05:41:40.762Z,99.90
2019-03-29T05:46:45.078Z,99.90
2019-03-29T05:51:49.344Z,99.90
2019-03-29T05:56:53.600Z,99.90
2019-03-29T06:01:57.894Z,99.90
2019-03-29T06:07:02.127Z,99.90
2019-03-29T06:12:06.482Z,99.90
2019-03-29T06:17:11.587Z,99.90
2019-03-29T06:22:16.772Z,99.90
2019-03-29T06:27:21.515Z,99.90
2019-03-29T06:32:27.850Z,99.90
2019-03-29T06:37:34.621Z,99.90
2019-03-29T06:42:38.851Z,99.90
2019-03-29T06:47:43.073Z,99.90
2019-03-29T06:52:47.681Z,99.90
2019-03-29T06:57:51.935Z,99.90
2019-03-29T07:02:56.496Z,99.90
2019-03-29T07:08:02.629Z,99.90
2019-03-29T07:13:08.195Z,99.90
2019-03-29T07:18:17.995Z,99.90
2019-03-29T07:23:34.927Z,99.90
2019-03-29T07:28:39.845Z,99.90
2019-03-29T07:33:45.406Z,99.90
2019-03-29T07:38:51.801Z,99.90
2019-03-29T07:43:56.645Z,99.90
2019-03-29T07:49:01.866Z,99.40
2019-03-29T07:54:09.721Z,98.50
2019-03-29T07:59:14.991Z,97.70
2019-03-29T08:04:21.607Z,97.30
2019-03-29T08:09:26.300Z,97.10
2019-03-29T08:14:31.507Z,95.40
2019-03-29T08:19:37.271Z,95.40
2019-03-29T08:24:41.781Z,94.90
2019-03-29T08:29:46.116Z,94.40
2019-03-29T08:34:50.370Z,94.80
2019-03-29T08:39:56.652Z,95.10
2019-03-29T08:45:01.581Z,95.60
2019-03-29T08:50:06.789Z,95.10
2019-03-29T08:55:11.437Z,94.80
2019-03-29T09:00:19.216Z,94.20
2019-03-29T09:05:23.453Z,92.90
2019-03-29T09:10:27.849Z,92.10
2019-03-29T09:15:32.167Z,91.70
2019-03-29T09:20:36.553Z,91.10
2019-03-29T09:25:40.809Z,87.90
2019-03-29T09:30:45.021Z,90.70
2019-03-29T09:35:49.252Z,88.30
2019-03-29T09:40:58.558Z,85.60
2019-03-29T09:46:03.025Z,86.30
2019-03-29T09:51:05.719Z,83.70
2019-03-29T09:56:09.939Z,85.50
2019-03-29T10:01:14.174Z,82.20
2019-03-29T10:06:19.451Z,82.20
2019-03-29T10:11:23.770Z,82.70
2019-03-29T10:16:28.045Z,77.60
2019-03-29T10:21:34.100Z,75.80
2019-03-29T10:26:38.318Z,73.70
2019-03-29T10:31:42.557Z,76.70
2019-03-29T10:36:47.072Z,76.30
2019-03-29T10:41:51.663Z,75.90
2019-03-29T10:46:56.028Z,77.00
2019-03-29T10:52:00.268Z,79.30
2019-03-29T10:57:04.515Z,77.40
2019-03-29T11:02:08.860Z,78.70
2019-03-29T11:07:13.159Z,77.80
2019-03-29T11:12:17.377Z,75.90
2019-03-29T11:17:21.682Z,70.20
2019-03-29T11:22:25.910Z,71.30
2019-03-29T11:27:30.537Z,67.80
2019-03-29T11:32:34.732Z,60.00
2019-03-29T11:37:39.026Z,43.40
2019-03-29T11:42:43.278Z,34.50
2019-03-29T11:47:47.936Z,33.40
2019-03-29T11:52:52.525Z,32.20
2019-03-29T11:57:56.813Z,35.50
2019-03-29T12:03:01.410Z,37.60
2019-03-29T12:08:06.547Z,33.30
2019-03-29T12:13:11.844Z,31.00
2019-03-29T12:18:16.198Z,29.20
2019-03-29T12:23:20.435Z,29.60
2019-03-29T12:28:24.776Z,33.40
2019-03-29T12:33:29.119Z,35.80
2019-03-29T12:38:33.354Z,38.90
2019-03-29T12:43:37.611Z,36.90
2019-03-29T12:48:41.923Z,38.40
2019-03-29T12:53:46.151Z,41.80
2019-03-29T12:58:50.398Z,44.60
2019-03-29T13:03:54.709Z,42.70
2019-03-29T13:08:58.998Z,42.80
2019-03-29T13:14:10.216Z,37.00
2019-03-29T13:19:09.546Z,33.10
2019-03-29T13:24:15.935Z,33.00
2019-03-29T13:29:20.104Z,30.50
2019-03-29T13:34:24.447Z,28.80
2019-03-29T13:39:28.712Z,28.90
2019-03-29T13:44:33.199Z,29.30
2019-03-29T13:49:37.561Z,29.80
2019-03-29T13:54:41.808Z,29.80
2019-03-29T13:59:46.021Z,29.60
2019-03-29T14:04:53.501Z,28.90
2019-03-29T14:09:57.716Z,28.50
2019-03-29T14:15:02.498Z,28.20
2019-03-29T14:20:07.483Z,28.70
2019-03-29T14:25:11.777Z,29.10
2019-03-29T14:30:16.314Z,30.20
2019-03-29T14:35:20.547Z,30.60
2019-03-29T14:40:24.869Z,30.10
2019-03-29T14:45:29.151Z,30.50
2019-03-29T14:50:33.387Z,31.10
2019-03-29T14:55:37.604Z,31.20
2019-03-29T15:00:43.614Z,31.40
2019-03-29T15:05:47.946Z,32.60
2019-03-29T15:10:52.198Z,32.10
2019-03-29T15:15:56.474Z,31.60
2019-03-29T15:21:00.686Z,30.70
2019-03-29T15:26:05.041Z,31.30
2019-03-29T15:31:09.256Z,31.30
2019-03-29T15:36:13.465Z,31.00
2019-03-29T15:41:17.680Z,34.70
2019-03-29T15:46:21.918Z,35.20
2019-03-29T15:51:26.199Z,36.70
2019-03-29T15:56:30.410Z,39.00
2019-03-29T16:01:34.638Z,39.20
2019-03-29T16:06:38.859Z,43.20
2019-03-29T16:11:44.597Z,45.10
2019-03-29T16:17:27.960Z,44.00
2019-03-29T16:22:39.751Z,42.90
2019-03-29T16:27:55.988Z,46.00
2019-03-29T16:33:20.756Z,50.00
2019-03-29T16:38:36.687Z,52.20
2019-03-29T16:43:44.422Z,53.10
2019-03-29T16:48:56.926Z,53.80
2019-03-29T16:54:06.410Z,54.40
2019-03-29T16:59:11.101Z,55.90
2019-03-29T17:04:19.515Z,56.50
2019-03-29T17:09:29.091Z,57.40
2019-03-29T17:14:34.776Z,59.50
2019-03-29T17:19:52.035Z,62.40
2019-03-29T17:25:01.894Z,65.10
2019-03-29T17:30:08.248Z,74.80
2019-03-29T17:35:12.496Z,80.20
2019-03-29T17:40:17.109Z,81.60
2019-03-29T17:45:21.765Z,84.20
2019-03-29T17:50:26.044Z,86.50
2019-03-29T17:55:31.775Z,86.90
2019-03-29T18:00:36.294Z,88.10
2019-03-29T18:05:40.553Z,90.00
2019-03-29T18:10:44.760Z,90.50
2019-03-29T18:15:49.005Z,91.00
2019-03-29T18:20:53.294Z,91.70
2019-03-29T18:25:57.574Z,91.80
2019-03-29T18:31:02.022Z,91.80
2019-03-29T18:36:06.990Z,92.40
2019-03-29T18:41:11.192Z,93.20
2019-03-29T18:46:15.493Z,94.30
2019-03-29T18:51:19.797Z,94.30
2019-03-29T18:56:23.990Z,94.50
2019-03-29T19:01:28.253Z,94.70
2019-03-29T19:06:33.317Z,95.30
2019-03-29T19:11:37.921Z,95.80
2019-03-29T19:16:42.157Z,96.30
2019-03-29T19:21:47.130Z,96.50
2019-03-29T19:26:51.458Z,95.90
2019-03-29T19:31:56.358Z,96.10
2019-03-29T19:37:01.656Z,96.50
2019-03-29T19:42:06.114Z,96.90
2019-03-29T19:47:13.742Z,97.80
2019-03-29T19:52:16.681Z,98.60
2019-03-29T19:57:21.085Z,98.80
2019-03-29T20:02:25.317Z,98.80
2019-03-29T20:07:30.026Z,98.50
2019-03-29T20:12:34.402Z,98.80
2019-03-29T20:17:38.807Z,99.80
2019-03-29T20:22:43.338Z,99.90
2019-03-29T20:27:47.907Z,99.90
2019-03-29T20:32:52.438Z,99.90
2019-03-29T20:37:56.786Z,99.90
2019-03-29T20:43:01.090Z,99.90
2019-03-29T20:48:05.423Z,99.90
2019-03-29T20:53:09.937Z,99.90
2019-03-29T20:58:14.178Z,99.90
2019-03-29T21:03:18.723Z,99.90
2019-03-29T21:08:23.151Z,99.90
2019-03-29T21:13:27.783Z,99.90
2019-03-29T21:18:32.461Z,99.90
2019-03-29T21:23:37.122Z,99.90
2019-03-29T21:28:41.995Z,99.90
2019-03-29T21:33:47.045Z,99.90
2019-03-29T21:38:51.411Z,99.90
2019-03-29T21:43:55.725Z,99.90
2019-03-29T21:48:59.952Z,99.90
2019-03-29T21:54:04.814Z,99.90
2019-03-29T21:59:09.008Z,99.90
2019-03-29T22:04:15.536Z,99.90
2019-03-29T22:09:19.465Z,99.90
2019-03-29T22:14:23.721Z,99.90
2019-03-29T22:19:28.006Z,99.90
2019-03-29T22:24:32.230Z,99.90
2019-03-29T22:29:36.470Z,99.90
2019-03-29T22:34:41.035Z,99.90
2019-03-29T22:39:45.656Z,99.90
2019-03-29T22:44:50.114Z,99.90
2019-03-29T22:49:54.429Z,99.90
2019-03-29T22:54:59.035Z,99.90
2019-03-29T23:00:04.756Z,99.90
2019-03-29T23:05:09.824Z,99.90
2019-03-29T23:10:14.772Z,99.90
2019-03-29T23:15:19.006Z,99.90
2019-03-29T23:20:23.699Z,99.90
2019-03-29T23:25:28.126Z,99.90
2019-03-29T23:30:33.265Z,99.90
2019-03-29T23:35:37.596Z,99.90
2019-03-29T23:40:42.140Z,99.90
2019-03-29T23:45:46.348Z,99.90
2019-03-29T23:50:50.595Z,99.90
2019-03-29T23:55:54.817Z,99.90
